createdAt,value
2023-04-17T00:02:04.146Z,65.68
2023-04-17T00:05:09.521Z,65.62
2023-04-17T00:08:13.843Z,65.86
2023-04-17T00:11:18.743Z,65.76
2023-04-17T00:14:24.333Z,65.58
2023-04-17T00:17:27.866Z,65.50
2023-04-17T00:20:31.852Z,66.17
2023-04-17T00:23:35.341Z,66.05
2023-04-17T00:26:39.372Z,65.44
2023-04-17T00:29:44.141Z,66.21
2023-04-17T00:32:48.329Z,66.18
2023-04-17T00:35:52.388Z,66.35
2023-04-17T00:38:56.290Z,66.67
2023-04-17T00:42:00.203Z,66.23
2023-04-17T00:45:10.791Z,66.62
2023-04-17T00:48:17.720Z,66.87
2023-04-17T00:51:22.225Z,66.37
2023-04-17T00:54:26.626Z,66.71
2023-04-17T00:57:31.165Z,67.27
2023-04-17T01:00:36.526Z,67.24
2023-04-17T01:03:40.848Z,67.44
2023-04-17T01:06:44.720Z,67.22
2023-04-17T01:09:48.960Z,68.07
2023-04-17T01:13:03.729Z,69.26
2023-04-17T01:16:09.920Z,68.21
2023-04-17T01:19:16.596Z,67.78
2023-04-17T01:22:21.104Z,67.88
2023-04-17T01:25:30.161Z,68.82
2023-04-17T01:28:34.352Z,67.68
2023-04-17T01:31:37.930Z,69.07
2023-04-17T01:34:41.808Z,68.56
2023-04-17T01:37:45.337Z,69.11
2023-04-17T01:40:51.037Z,68.58
2023-04-17T01:43:54.446Z,69.05
2023-04-17T01:46:58.314Z,69.09
2023-04-17T01:50:01.875Z,69.21
2023-04-17T01:53:06.007Z,68.81
2023-04-17T01:56:11.591Z,69.29
2023-04-17T01:59:15.667Z,69.67
2023-04-17T02:02:19.249Z,69.49
2023-04-17T02:05:23.272Z,69.87
2023-04-17T02:08:27.127Z,70.14
2023-04-17T02:11:32.650Z,69.70
2023-04-17T02:14:36.125Z,69.99
2023-04-17T02:17:40.219Z,69.84
2023-04-17T02:20:47.308Z,71.04
2023-04-17T02:23:51.574Z,70.76
2023-04-17T02:26:56.807Z,70.80
2023-04-17T02:30:00.858Z,69.93
2023-04-17T02:33:04.471Z,70.66
2023-04-17T02:36:09.502Z,70.38
2023-04-17T02:39:18.635Z,69.99
2023-04-17T02:42:24.065Z,70.65
2023-04-17T02:45:27.583Z,70.57
2023-04-17T02:48:33.196Z,71.01
2023-04-17T02:51:36.741Z,70.87
2023-04-17T02:54:40.878Z,71.06
2023-04-17T02:57:46.722Z,70.23
2023-04-17T03:00:50.841Z,70.75
2023-04-17T03:03:55.929Z,70.21
2023-04-17T03:07:00.444Z,70.27
2023-04-17T03:10:06.309Z,70.48
2023-04-17T03:13:11.836Z,70.66
2023-04-17T03:16:15.545Z,69.85
2023-04-17T03:19:21.583Z,69.95
2023-04-17T03:22:25.028Z,69.79
2023-04-17T03:25:29.175Z,69.87
2023-04-17T03:28:34.202Z,69.76
2023-04-17T03:31:39.391Z,70.36
2023-04-17T03:34:42.829Z,69.76
2023-04-17T03:37:46.826Z,70.41
2023-04-17T03:40:50.776Z,70.19
2023-04-17T03:43:57.267Z,70.04
2023-04-17T03:47:00.716Z,69.62
2023-04-17T03:50:05.177Z,70.40
2023-04-17T03:53:13.378Z,70.20
2023-04-17T03:56:17.768Z,69.73
2023-04-17T03:59:23.532Z,69.88
2023-04-17T04:02:27.936Z,70.49
2023-04-17T04:05:31.637Z,70.25
2023-04-17T04:08:35.775Z,70.12
2023-04-17T04:11:39.169Z,70.38
2023-04-17T04:14:44.494Z,70.12
2023-04-17T04:17:49.270Z,69.85
2023-04-17T04:20:53.809Z,70.13
2023-04-17T04:24:04.127Z,70.18
2023-04-17T04:27:09.295Z,70.54
2023-04-17T04:30:15.650Z,69.98
2023-04-17T04:33:22.550Z,70.49
2023-04-17T04:36:29.858Z,70.50
2023-04-17T04:39:47.379Z,70.42
2023-04-17T04:42:52.240Z,70.41
2023-04-17T04:46:02.185Z,70.05
2023-04-17T04:49:08.792Z,69.95
2023-04-17T04:52:13.095Z,70.49
2023-04-17T04:55:16.693Z,70.05
2023-04-17T04:58:26.374Z,70.03
2023-04-17T05:01:34.081Z,70.36
2023-04-17T05:04:38.460Z,69.76
2023-04-17T05:07:42.825Z,69.88
2023-04-17T05:10:51.165Z,69.92
2023-04-17T05:13:55.002Z,70.74
2023-04-17T05:17:07.415Z,70.46
2023-04-17T05:20:13.118Z,70.71
2023-04-17T05:23:24.308Z,71.07
2023-04-17T05:26:28.729Z,69.95
2023-04-17T05:29:33.135Z,70.32
2023-04-17T05:32:38.038Z,70.19
2023-04-17T05:35:58.662Z,70.33
2023-04-17T05:39:02.047Z,70.43
2023-04-17T05:42:06.986Z,70.58
2023-04-17T05:45:14.574Z,71.15
2023-04-17T05:48:20.116Z,70.76
2023-04-17T05:51:23.554Z,70.66
2023-04-17T05:54:29.133Z,70.75
2023-04-17T05:57:33.865Z,70.39
2023-04-17T06:00:38.468Z,69.71
2023-04-17T06:03:46.590Z,70.48
2023-04-17T06:06:57.519Z,70.09
2023-04-17T06:10:01.135Z,70.57
2023-04-17T06:13:05.198Z,70.35
2023-04-17T06:16:08.883Z,70.17
2023-04-17T06:19:14.082Z,70.20
2023-04-17T06:22:17.697Z,69.85
2023-04-17T06:25:21.516Z,69.63
2023-04-17T06:28:25.028Z,69.43
2023-04-17T06:31:31.266Z,69.87
2023-04-17T06:34:41.361Z,69.33
2023-04-17T06:37:52.044Z,69.38
2023-04-17T06:40:55.458Z,69.86
2023-04-17T06:43:59.668Z,69.94
2023-04-17T06:47:17.095Z,69.75
2023-04-17T06:50:22.574Z,69.32
2023-04-17T06:53:27.183Z,69.01
2023-04-17T06:56:31.592Z,69.04
2023-04-17T06:59:35.505Z,68.87
2023-04-17T07:02:39.274Z,69.48
2023-04-17T07:05:45.721Z,69.67
2023-04-17T07:08:49.479Z,69.12
2023-04-17T07:11:52.877Z,69.08
2023-04-17T07:14:57.357Z,68.86
2023-04-17T07:18:00.976Z,68.95
2023-04-17T07:21:06.221Z,68.84
2023-04-17T07:24:09.711Z,69.18
2023-04-17T07:27:13.774Z,69.23
2023-04-17T07:30:17.325Z,68.87
2023-04-17T07:33:21.180Z,69.29
2023-04-17T07:36:28.417Z,69.19
2023-04-17T07:39:32.440Z,69.25
2023-04-17T07:42:35.849Z,68.88
2023-04-17T07:45:41.715Z,68.14
2023-04-17T07:48:46.092Z,69.11
2023-04-17T07:51:51.827Z,68.88
2023-04-17T07:54:55.328Z,68.94
2023-04-17T07:58:01.936Z,68.44
2023-04-17T08:01:06.172Z,68.31
2023-04-17T08:04:10.696Z,68.62
2023-04-17T08:07:15.645Z,68.11
2023-04-17T08:10:19.842Z,68.30
2023-04-17T08:13:23.264Z,68.00
2023-04-17T08:16:27.244Z,68.13
2023-04-17T08:19:30.868Z,67.76
2023-04-17T08:22:40.948Z,68.44
2023-04-17T08:25:45.980Z,67.86
2023-04-17T08:28:49.700Z,67.77
2023-04-17T08:32:00.275Z,67.67
2023-04-17T08:35:13.441Z,67.59
2023-04-17T08:38:18.194Z,68.14
2023-04-17T08:41:26.781Z,68.01
2023-04-17T08:44:30.693Z,67.09
2023-04-17T08:47:35.957Z,67.51
2023-04-17T08:50:39.917Z,66.32
2023-04-17T08:53:45.098Z,66.52
2023-04-17T08:56:48.676Z,66.07
2023-04-17T08:59:52.509Z,66.27
2023-04-17T09:02:57.949Z,66.34
2023-04-17T09:06:02.028Z,66.07
2023-04-17T09:09:06.827Z,66.26
2023-04-17T09:12:11.542Z,65.97
2023-04-17T09:15:19.161Z,65.63
2023-04-17T09:18:25.950Z,65.71
2023-04-17T09:21:29.794Z,65.88
2023-04-17T09:24:38.558Z,66.05
2023-04-17T09:27:41.905Z,66.03
2023-04-17T09:30:45.716Z,66.35
2023-04-17T09:33:58.840Z,67.34
2023-04-17T09:37:03.408Z,66.58
2023-04-17T09:40:12.009Z,65.76
2023-04-17T09:43:15.971Z,64.79
2023-04-17T09:46:38.188Z,64.01
2023-04-17T09:49:49.769Z,64.01
2023-04-17T09:52:55.966Z,63.67
2023-04-17T09:56:05.732Z,63.00
2023-04-17T09:59:09.880Z,62.96
2023-04-17T10:02:16.655Z,62.67
2023-04-17T10:05:21.307Z,63.31
2023-04-17T10:08:25.420Z,63.37
2023-04-17T10:11:37.233Z,62.55
2023-04-17T10:14:46.665Z,63.09
2023-04-17T10:17:50.766Z,63.30
2023-04-17T10:20:55.672Z,62.83
2023-04-17T10:23:59.427Z,62.18
2023-04-17T10:27:55.777Z,61.46
2023-04-17T10:31:01.264Z,61.31
2023-04-17T10:34:04.819Z,60.43
2023-04-17T10:37:08.572Z,60.92
2023-04-17T10:40:14.108Z,60.64
2023-04-17T10:43:22.377Z,59.67
2023-04-17T10:46:27.668Z,58.66
2023-04-17T10:49:50.232Z,58.79
2023-04-17T10:52:54.008Z,59.27
2023-04-17T10:55:58.594Z,59.58
2023-04-17T10:59:06.221Z,59.45
2023-04-17T11:02:10.103Z,59.17
2023-04-17T11:05:14.780Z,59.15
2023-04-17T11:08:18.467Z,58.88
2023-04-17T11:11:35.307Z,58.78
2023-04-17T11:14:47.364Z,59.13
2023-04-17T11:17:51.246Z,58.94
2023-04-17T11:20:54.959Z,58.43
2023-04-17T11:23:58.694Z,58.14
2023-04-17T11:27:03.390Z,57.60
2023-04-17T11:30:10.339Z,57.90
2023-04-17T11:33:14.174Z,57.59
2023-04-17T11:36:18.155Z,57.40
2023-04-17T11:39:25.627Z,56.43
2023-04-17T11:42:29.385Z,56.26
2023-04-17T11:45:35.620Z,56.28
2023-04-17T11:48:39.566Z,56.34
2023-04-17T11:51:46.719Z,55.43
2023-04-17T11:54:59.241Z,56.64
2023-04-17T11:58:06.945Z,56.88
2023-04-17T12:01:13.353Z,57.15
2023-04-17T12:04:22.399Z,57.36
2023-04-17T12:07:26.242Z,57.64
2023-04-17T12:10:41.776Z,58.19
2023-04-17T12:13:45.552Z,58.15
2023-04-17T12:16:51.879Z,58.15
2023-04-17T12:19:55.838Z,58.57
2023-04-17T12:22:59.544Z,58.68
2023-04-17T12:26:03.571Z,58.65
2023-04-17T12:29:07.228Z,59.18
2023-04-17T12:32:12.397Z,59.02
2023-04-17T12:35:17.011Z,58.99
2023-04-17T12:38:20.794Z,58.90
2023-04-17T12:41:26.539Z,59.30
2023-04-17T12:44:30.364Z,59.46
2023-04-17T12:47:35.568Z,59.60
2023-04-17T12:50:42.684Z,60.03
2023-04-17T12:53:47.722Z,59.58
2023-04-17T12:56:51.310Z,59.65
2023-04-17T12:59:55.654Z,58.89
2023-04-17T13:03:01.126Z,58.64
2023-04-17T13:06:05.279Z,58.39
2023-04-17T13:09:08.846Z,58.59
2023-04-17T13:12:13.274Z,59.13
2023-04-17T13:15:17.538Z,59.60
2023-04-17T13:18:22.575Z,59.82
2023-04-17T13:21:26.863Z,59.13
2023-04-17T13:24:30.497Z,58.93
2023-04-17T13:27:34.254Z,58.45
2023-04-17T13:30:38.132Z,58.59
2023-04-17T13:33:43.064Z,57.66
2023-04-17T13:36:48.725Z,57.37
2023-04-17T13:39:52.099Z,57.54
2023-04-17T13:42:55.772Z,57.67
2023-04-17T13:45:59.579Z,58.37
2023-04-17T13:49:04.879Z,59.15
2023-04-17T13:52:08.721Z,59.68
2023-04-17T13:55:14.693Z,60.20
2023-04-17T13:58:18.541Z,60.30
2023-04-17T14:01:22.649Z,60.64
2023-04-17T14:04:28.650Z,60.54
2023-04-17T14:07:32.594Z,61.04
2023-04-17T14:10:36.357Z,60.66
2023-04-17T14:13:40.443Z,61.29
2023-04-17T14:16:46.352Z,60.58
2023-04-17T14:19:52.445Z,60.51
2023-04-17T14:22:55.865Z,60.53
2023-04-17T14:25:59.819Z,59.94
2023-04-17T14:29:04.285Z,60.71
2023-04-17T14:32:07.957Z,60.25
2023-04-17T14:35:13.267Z,59.99
2023-04-17T14:38:17.061Z,60.63
2023-04-17T14:41:21.267Z,60.84
2023-04-17T14:44:25.032Z,60.98
2023-04-17T14:47:30.024Z,60.67
2023-04-17T14:50:35.238Z,61.80
2023-04-17T14:53:38.885Z,62.10
2023-04-17T14:56:42.552Z,62.22
2023-04-17T14:59:46.547Z,61.39
2023-04-17T15:02:50.702Z,62.08
2023-04-17T15:05:57.035Z,62.37
2023-04-17T15:09:00.742Z,62.58
2023-04-17T15:12:04.480Z,62.63
2023-04-17T15:15:09.997Z,63.04
2023-04-17T15:18:14.239Z,63.05
2023-04-17T15:21:19.985Z,63.19
2023-04-17T15:24:24.039Z,62.92
2023-04-17T15:27:27.831Z,63.17
2023-04-17T15:30:32.140Z,63.02
2023-04-17T15:33:35.987Z,63.05
2023-04-17T15:36:41.099Z,63.29
2023-04-17T15:39:44.771Z,63.29
2023-04-17T15:42:48.496Z,63.07
2023-04-17T15:45:53.277Z,63.34
2023-04-17T15:49:08.374Z,63.58
2023-04-17T15:52:14.450Z,63.76
2023-04-17T15:55:18.423Z,63.91
2023-04-17T15:58:22.198Z,63.66
2023-04-17T16:01:26.636Z,63.61
2023-04-17T16:04:30.460Z,63.66
2023-04-17T16:07:35.921Z,64.10
2023-04-17T16:10:39.563Z,64.69
2023-04-17T16:13:43.383Z,65.02
2023-04-17T16:16:46.999Z,64.88
2023-04-17T16:19:50.974Z,65.08
2023-04-17T16:22:56.133Z,65.86
2023-04-17T16:25:59.876Z,65.52
2023-04-17T16:29:03.627Z,65.51
2023-04-17T16:32:07.489Z,65.34
2023-04-17T16:35:11.399Z,65.46
2023-04-17T16:38:16.522Z,66.26
2023-04-17T16:41:20.411Z,66.44
2023-04-17T16:44:24.062Z,66.28
2023-04-17T16:47:30.424Z,66.83
2023-04-17T16:50:34.163Z,67.57
2023-04-17T16:53:41.176Z,67.37
2023-04-17T16:56:45.021Z,68.11
2023-04-17T16:59:48.649Z,67.96
2023-04-17T17:02:52.400Z,68.05
2023-04-17T17:05:57.363Z,68.23
2023-04-17T17:09:02.593Z,68.48
2023-04-17T17:12:06.855Z,68.13
2023-04-17T17:15:11.858Z,68.44
2023-04-17T17:18:15.724Z,68.54
2023-04-17T17:21:19.448Z,68.87
2023-04-17T17:24:24.797Z,69.14
2023-04-17T17:27:28.606Z,68.55
2023-04-17T17:30:32.250Z,69.86
2023-04-17T17:33:36.202Z,69.45
2023-04-17T17:36:39.888Z,68.87
2023-04-17T17:39:45.166Z,69.54
2023-04-17T17:42:49.044Z,69.63
2023-04-17T17:45:53.862Z,69.31
2023-04-17T17:48:57.623Z,69.39
2023-04-17T17:52:01.070Z,69.73
2023-04-17T17:55:07.312Z,70.12
2023-04-17T17:58:11.059Z,69.32
2023-04-17T18:01:16.111Z,69.05
2023-04-17T18:04:20.183Z,69.27
2023-04-17T18:07:25.550Z,69.64
2023-04-17T18:10:30.664Z,69.59
2023-04-17T18:13:34.364Z,70.25
2023-04-17T18:16:38.297Z,70.26
2023-04-17T18:19:42.811Z,70.62
2023-04-17T18:22:46.654Z,69.66
2023-04-17T18:25:59.730Z,71.23
2023-04-17T18:29:03.785Z,70.09
2023-04-17T18:32:07.680Z,70.06
2023-04-17T18:35:11.897Z,70.54
2023-04-17T18:38:16.705Z,70.03
2023-04-17T18:41:23.004Z,71.15
2023-04-17T18:44:26.794Z,71.25
2023-04-17T18:47:30.548Z,70.94
2023-04-17T18:50:34.729Z,70.90
2023-04-17T18:53:38.360Z,70.82
2023-04-17T18:56:43.848Z,70.94
2023-04-17T18:59:47.530Z,71.12
2023-04-17T19:02:51.247Z,71.01
2023-04-17T19:05:55.056Z,71.15
2023-04-17T19:08:59.044Z,71.15
2023-04-17T19:12:04.624Z,71.66
2023-04-17T19:15:11.135Z,71.38
2023-04-17T19:18:15.275Z,71.54
2023-04-17T19:21:18.979Z,72.00
2023-04-17T19:24:22.773Z,72.08
2023-04-17T19:27:28.170Z,72.20
2023-04-17T19:30:31.739Z,71.78
2023-04-17T19:33:35.632Z,71.91
2023-04-17T19:36:40.001Z,72.30
2023-04-17T19:39:43.640Z,72.35
2023-04-17T19:42:48.714Z,72.89
2023-04-17T19:45:52.376Z,72.49
2023-04-17T19:48:56.116Z,73.13
2023-04-17T19:52:00.942Z,73.09
2023-04-17T19:55:08.239Z,72.19
2023-04-17T19:58:13.433Z,73.36
2023-04-17T20:01:17.155Z,73.23
2023-04-17T20:04:20.999Z,72.74
2023-04-17T20:07:24.483Z,73.21
2023-04-17T20:10:28.574Z,73.04
2023-04-17T20:13:33.678Z,73.70
2023-04-17T20:16:37.404Z,73.33
2023-04-17T20:19:41.450Z,73.15
2023-04-17T20:22:45.270Z,73.18
2023-04-17T20:25:49.224Z,73.38
2023-04-17T20:28:55.156Z,73.32
2023-04-17T20:31:58.770Z,72.91
2023-04-17T20:35:03.889Z,73.66
2023-04-17T20:38:08.058Z,73.66
2023-04-17T20:41:11.755Z,73.58
2023-04-17T20:44:18.626Z,73.52
2023-04-17T20:47:22.270Z,73.65
2023-04-17T20:50:25.963Z,73.89
2023-04-17T20:53:29.594Z,73.54
2023-04-17T20:56:33.271Z,74.01
2023-04-17T20:59:38.302Z,73.94
2023-04-17T21:02:42.146Z,73.85
2023-04-17T21:05:46.214Z,74.15
2023-04-17T21:08:50.158Z,73.95
2023-04-17T21:11:53.806Z,74.24
2023-04-17T21:14:58.781Z,74.46
2023-04-17T21:18:02.451Z,73.79
2023-04-17T21:21:06.717Z,74.34
2023-04-17T21:24:11.293Z,74.49
2023-04-17T21:27:15.519Z,73.94
2023-04-17T21:30:20.728Z,74.34
2023-04-17T21:33:24.371Z,74.47
2023-04-17T21:36:28.597Z,74.33
2023-04-17T21:39:33.046Z,74.21
2023-04-17T21:42:37.136Z,74.31
2023-04-17T21:45:42.303Z,73.92
2023-04-17T21:48:45.996Z,75.06
2023-04-17T21:51:49.756Z,74.46
2023-04-17T21:54:53.521Z,74.48
2023-04-17T21:57:56.996Z,74.24
2023-04-17T22:01:02.133Z,73.97
2023-04-17T22:04:06.203Z,74.28
2023-04-17T22:07:09.945Z,74.62
2023-04-17T22:10:13.693Z,74.87
2023-04-17T22:13:17.373Z,74.42
2023-04-17T22:16:22.523Z,74.45
2023-04-17T22:19:26.271Z,74.54
2023-04-17T22:22:30.111Z,74.50
2023-04-17T22:25:33.931Z,74.97
2023-04-17T22:28:37.639Z,75.04
2023-04-17T22:31:42.686Z,74.99
2023-04-17T22:34:49.257Z,75.06
2023-04-17T22:37:52.900Z,74.78
2023-04-17T22:40:56.696Z,75.05
2023-04-17T22:44:00.359Z,74.70
2023-04-17T22:47:05.506Z,74.76
2023-04-17T22:50:11.745Z,75.08
2023-04-17T22:53:15.664Z,74.55
2023-04-17T22:56:19.310Z,75.18
2023-04-17T22:59:22.854Z,75.11
2023-04-17T23:02:27.949Z,75.06
2023-04-17T23:05:31.756Z,74.67
2023-04-17T23:08:35.465Z,74.98
2023-04-17T23:11:39.036Z,75.13
2023-04-17T23:14:43.450Z,75.50
2023-04-17T23:17:49.138Z,75.15
2023-04-17T23:20:52.982Z,75.34
2023-04-17T23:23:57.306Z,75.69
2023-04-17T23:27:01.883Z,75.03
2023-04-17T23:30:06.769Z,75.46
2023-04-17T23:33:11.848Z,74.85
2023-04-17T23:36:15.806Z,75.43
2023-04-17T23:39:19.555Z,75.51
2023-04-17T23:42:23.266Z,75.69
2023-04-17T23:45:27.105Z,75.96
2023-04-17T23:48:32.209Z,75.57
2023-04-17T23:51:36.062Z,75.61
2023-04-17T23:54:39.847Z,75.43
2023-04-17T23:57:43.563Z,75.77
